createdAt,value
2022-09-15T00:01:31.220Z,0.00
2022-09-15T00:02:31.696Z,0.00
2022-09-15T00:03:33.198Z,0.00
2022-09-15T00:04:31.406Z,0.00
2022-09-15T00:05:31.417Z,0.00
2022-09-15T00:06:31.378Z,0.00
2022-09-15T00:07:31.375Z,0.00
2022-09-15T00:08:31.405Z,0.00
2022-09-15T00:09:31.352Z,0.00
2022-09-15T00:10:31.367Z,0.00
2022-09-15T00:11:31.336Z,0.00
2022-09-15T00:12:31.317Z,0.00
2022-09-15T00:13:31.311Z,0.00
2022-09-15T00:14:31.332Z,0.00
2022-09-15T00:15:31.341Z,0.00
2022-09-15T00:16:31.366Z,0.00
2022-09-15T00:17:31.260Z,0.00
2022-09-15T00:18:31.261Z,0.00
2022-09-15T00:19:31.253Z,0.00
2022-09-15T00:20:31.268Z,0.00
2022-09-15T00:21:31.237Z,0.00
2022-09-15T00:22:31.223Z,0.00
2022-09-15T00:23:31.201Z,0.00
2022-09-15T00:24:31.191Z,0.00
2022-09-15T00:25:31.201Z,0.00
2022-09-15T00:26:31.191Z,0.00
2022-09-15T00:27:31.164Z,0.00
2022-09-15T00:28:31.163Z,0.00
2022-09-15T00:29:31.154Z,0.00
2022-09-15T00:30:31.181Z,0.00
2022-09-15T00:31:31.156Z,0.00
2022-09-15T00:32:31.112Z,0.00
2022-09-15T00:33:31.104Z,0.00
2022-09-15T00:34:31.112Z,0.00
2022-09-15T00:35:31.091Z,0.00
2022-09-15T00:36:31.085Z,0.00
2022-09-15T00:37:31.078Z,0.00
2022-09-15T00:38:31.054Z,0.00
2022-09-15T00:39:31.034Z,0.00
2022-09-15T00:40:31.107Z,0.00
2022-09-15T00:41:31.046Z,0.00
2022-09-15T00:42:31.016Z,0.00
2022-09-15T00:43:31.016Z,0.00
2022-09-15T00:44:30.996Z,0.00
2022-09-15T00:45:31.023Z,0.00
2022-09-15T00:46:30.999Z,0.00
2022-09-15T00:47:30.985Z,0.00
2022-09-15T00:48:30.955Z,0.00
2022-09-15T00:49:30.924Z,0.00
2022-09-15T00:50:30.926Z,0.00
2022-09-15T00:51:30.937Z,0.00
2022-09-15T00:52:30.935Z,0.00
2022-09-15T00:53:30.889Z,0.00
2022-09-15T00:54:30.878Z,0.00
2022-09-15T00:55:30.894Z,0.00
2022-09-15T00:56:30.889Z,0.00
2022-09-15T00:57:30.858Z,0.00
2022-09-15T00:58:30.857Z,0.00
2022-09-15T00:59:30.834Z,0.00
2022-09-15T01:00:30.821Z,0.00
2022-09-15T01:01:30.930Z,0.00
2022-09-15T01:02:30.851Z,0.00
2022-09-15T01:03:30.792Z,0.00
2022-09-15T01:04:30.780Z,0.00
2022-09-15T01:05:30.759Z,0.00
2022-09-15T01:06:30.777Z,0.00
2022-09-15T01:07:30.773Z,0.00
2022-09-15T01:08:30.751Z,0.00
2022-09-15T01:09:30.717Z,0.00
2022-09-15T01:10:30.887Z,0.00
2022-09-15T01:11:30.713Z,0.00
2022-09-15T01:12:30.710Z,0.00
2022-09-15T01:13:30.682Z,0.00
2022-09-15T01:14:30.682Z,0.00
2022-09-15T01:15:30.652Z,0.00
2022-09-15T01:16:30.703Z,0.00
2022-09-15T01:17:30.666Z,0.00
2022-09-15T01:18:30.625Z,0.00
2022-09-15T01:19:30.615Z,0.00
2022-09-15T01:20:30.614Z,0.00
2022-09-15T01:21:30.591Z,0.00
2022-09-15T01:22:30.613Z,0.00
2022-09-15T01:23:30.583Z,0.00
2022-09-15T01:24:30.577Z,0.00
2022-09-15T01:25:30.561Z,0.00
2022-09-15T01:26:30.560Z,0.00
2022-09-15T01:27:41.999Z,0.00
2022-09-15T01:28:31.544Z,0.00
2022-09-15T01:29:30.525Z,0.00
2022-09-15T01:30:30.506Z,0.00
2022-09-15T01:31:30.518Z,0.00
2022-09-15T01:32:30.502Z,0.00
2022-09-15T01:33:30.477Z,0.00
2022-09-15T01:34:30.455Z,0.00
2022-09-15T01:35:30.450Z,0.00
2022-09-15T01:36:30.456Z,0.00
2022-09-15T01:37:30.459Z,0.00
2022-09-15T01:38:30.421Z,0.00
2022-09-15T01:39:30.408Z,0.00
2022-09-15T01:40:30.439Z,0.00
2022-09-15T01:41:30.388Z,0.00
2022-09-15T01:42:30.399Z,0.00
2022-09-15T01:43:30.397Z,0.00
2022-09-15T01:44:30.357Z,0.00
2022-09-15T01:45:30.407Z,0.00
2022-09-15T01:46:30.351Z,0.00
2022-09-15T01:47:30.326Z,0.00
2022-09-15T01:48:30.339Z,0.00
2022-09-15T01:49:30.310Z,0.00
2022-09-15T01:50:30.291Z,0.00
2022-09-15T01:51:30.280Z,0.00
2022-09-15T01:52:30.284Z,0.00
2022-09-15T01:53:30.296Z,0.00
2022-09-15T01:54:30.284Z,0.00
2022-09-15T01:55:30.253Z,0.00
2022-09-15T01:56:30.231Z,0.00
2022-09-15T01:57:30.250Z,0.00
2022-09-15T01:58:30.242Z,0.00
2022-09-15T01:59:30.208Z,0.00
2022-09-15T02:00:30.194Z,0.00
2022-09-15T02:01:30.253Z,0.00
2022-09-15T02:02:30.249Z,0.00
2022-09-15T02:03:30.185Z,0.00
2022-09-15T02:04:30.165Z,0.00
2022-09-15T02:05:30.157Z,0.00
2022-09-15T02:06:30.143Z,0.00
2022-09-15T02:07:30.135Z,0.00
2022-09-15T02:08:30.147Z,0.00
2022-09-15T02:09:30.102Z,0.00
2022-09-15T02:10:30.083Z,0.00
2022-09-15T02:11:30.093Z,0.00
2022-09-15T02:12:30.074Z,0.00
2022-09-15T02:13:30.074Z,0.00
2022-09-15T02:14:30.045Z,0.00
2022-09-15T02:15:30.048Z,0.00
2022-09-15T02:16:30.098Z,0.00
2022-09-15T02:17:30.034Z,0.00
2022-09-15T02:18:30.033Z,0.00
2022-09-15T02:19:30.002Z,0.00
2022-09-15T02:20:29.979Z,0.00
2022-09-15T02:21:29.986Z,0.00
2022-09-15T02:22:29.967Z,0.00
2022-09-15T02:23:29.968Z,0.00
2022-09-15T02:24:30.044Z,0.00
2022-09-15T02:25:29.947Z,0.00
2022-09-15T02:26:29.939Z,0.00
2022-09-15T02:27:29.937Z,0.00
2022-09-15T02:28:29.900Z,0.00
2022-09-15T02:29:29.888Z,0.00
2022-09-15T02:30:29.891Z,0.00
2022-09-15T02:31:29.927Z,0.00
2022-09-15T02:32:29.866Z,0.00
2022-09-15T02:33:29.856Z,0.00
2022-09-15T02:34:29.852Z,0.00
2022-09-15T02:35:29.833Z,0.00
2022-09-15T02:36:29.842Z,0.00
2022-09-15T02:37:29.822Z,0.00
2022-09-15T02:38:29.811Z,0.00
2022-09-15T02:39:29.813Z,0.00
2022-09-15T02:40:29.889Z,0.00
2022-09-15T02:41:29.853Z,0.00
2022-09-15T02:42:29.791Z,0.00
2022-09-15T02:43:29.752Z,0.00
2022-09-15T02:44:29.748Z,0.00
2022-09-15T02:45:29.775Z,0.00
2022-09-15T02:46:29.734Z,0.00
2022-09-15T02:47:29.744Z,0.00
2022-09-15T02:48:29.704Z,0.00
2022-09-15T02:49:29.696Z,0.00
2022-09-15T02:50:29.683Z,0.00
2022-09-15T02:51:29.672Z,0.00
2022-09-15T02:52:29.682Z,0.00
2022-09-15T02:53:29.652Z,0.00
2022-09-15T02:54:29.641Z,0.00
2022-09-15T02:55:29.632Z,0.00
2022-09-15T02:56:29.626Z,0.00
2022-09-15T02:57:29.634Z,0.00
2022-09-15T02:58:29.614Z,0.00
2022-09-15T02:59:29.606Z,0.00
2022-09-15T03:00:29.567Z,0.00
2022-09-15T03:01:29.614Z,0.00
2022-09-15T03:02:29.607Z,0.00
2022-09-15T03:03:29.563Z,0.00
2022-09-15T03:04:29.546Z,0.00
2022-09-15T03:05:29.525Z,0.00
2022-09-15T03:06:29.548Z,0.00
2022-09-15T03:07:29.507Z,0.00
2022-09-15T03:08:29.508Z,0.00
2022-09-15T03:13:50.364Z,0.00
2022-09-15T03:14:50.655Z,0.00
2022-09-15T03:15:50.623Z,0.00
2022-09-15T03:16:50.666Z,0.00
2022-09-15T03:24:48.233Z,0.00
2022-09-15T03:25:18.960Z,0.00
2022-09-15T03:27:45.168Z,0.00
2022-09-15T03:28:57.154Z,0.00
2022-09-15T03:29:49.314Z,0.00
2022-09-15T03:30:49.029Z,0.00
2022-09-15T03:31:49.859Z,0.00
2022-09-15T03:32:34.729Z,0.00
2022-09-15T03:33:55.704Z,0.00
2022-09-15T03:34:58.461Z,0.00
2022-09-15T03:35:51.939Z,0.00
2022-09-15T03:36:57.741Z,0.00
2022-09-15T03:37:55.670Z,0.00
2022-09-15T03:38:50.976Z,0.00
2022-09-15T03:39:56.382Z,0.00
2022-09-15T03:40:55.645Z,0.00
2022-09-15T03:41:55.620Z,0.00
2022-09-15T03:42:55.977Z,0.00
2022-09-15T03:43:57.654Z,0.00
2022-09-15T03:44:55.635Z,0.00
2022-09-15T03:46:05.867Z,0.00
2022-09-15T03:47:04.182Z,0.00
2022-09-15T03:47:34.549Z,0.00
2022-09-15T03:48:46.193Z,0.00
2022-09-15T03:50:05.879Z,0.00
2022-09-15T03:51:10.461Z,0.00
2022-09-15T03:53:11.428Z,0.00
2022-09-15T03:54:03.075Z,0.00
2022-09-15T03:55:03.077Z,0.00
2022-09-15T03:56:04.775Z,0.00
2022-09-15T03:57:53.918Z,0.00
2022-09-15T03:58:55.216Z,0.00
2022-09-15T03:59:54.160Z,0.00
2022-09-15T04:00:54.207Z,0.00
2022-09-15T04:01:54.239Z,0.00
2022-09-15T04:02:54.174Z,0.00
2022-09-15T04:03:54.096Z,0.00
2022-09-15T04:04:54.075Z,0.00
2022-09-15T04:05:54.088Z,0.00
2022-09-15T04:06:54.066Z,0.00
2022-09-15T04:07:54.048Z,0.00
2022-09-15T04:08:54.045Z,0.00
2022-09-15T04:09:54.028Z,0.00
2022-09-15T04:10:54.054Z,0.00
2022-09-15T04:11:54.000Z,0.00
2022-09-15T04:12:53.989Z,0.00
2022-09-15T04:13:53.996Z,0.00
2022-09-15T04:14:53.975Z,0.00
2022-09-15T04:15:54.003Z,0.00
2022-09-15T04:16:53.978Z,0.00
2022-09-15T04:17:53.959Z,0.00
2022-09-15T04:18:53.930Z,0.00
2022-09-15T04:19:53.936Z,0.00
2022-09-15T04:20:53.918Z,0.00
2022-09-15T04:21:53.957Z,0.00
2022-09-15T04:22:53.902Z,0.00
2022-09-15T04:23:53.889Z,0.00
2022-09-15T04:24:53.894Z,0.00
2022-09-15T04:25:53.852Z,0.00
2022-09-15T04:26:53.891Z,0.00
2022-09-15T04:27:53.853Z,0.00
2022-09-15T04:28:53.843Z,0.00
2022-09-15T04:29:53.871Z,0.00
2022-09-15T04:30:53.813Z,0.00
2022-09-15T04:31:53.953Z,0.00
2022-09-15T04:32:53.795Z,0.00
2022-09-15T04:33:53.777Z,0.00
2022-09-15T04:34:53.797Z,0.00
2022-09-15T04:35:53.761Z,0.00
2022-09-15T04:36:53.765Z,0.00
2022-09-15T04:37:53.734Z,5.62
2022-09-15T04:38:53.765Z,5.62
2022-09-15T04:39:53.789Z,5.62
2022-09-15T04:40:53.717Z,5.62
2022-09-15T04:41:53.726Z,5.62
2022-09-15T04:42:53.690Z,5.62
2022-09-15T04:43:53.789Z,11.25
2022-09-15T04:44:53.672Z,11.25
2022-09-15T04:45:53.662Z,11.25
2022-09-15T04:46:53.748Z,11.25
2022-09-15T04:47:53.638Z,16.88
2022-09-15T04:48:53.627Z,16.88
2022-09-15T04:49:53.628Z,16.88
2022-09-15T04:50:53.610Z,22.50
2022-09-15T04:51:53.593Z,22.50
2022-09-15T04:52:53.627Z,22.50
2022-09-15T04:53:53.580Z,28.12
2022-09-15T04:54:53.569Z,28.12
2022-09-15T04:55:53.561Z,28.12
2022-09-15T04:56:53.561Z,33.75
2022-09-15T04:57:53.561Z,33.75
2022-09-15T04:58:53.567Z,33.75
2022-09-15T04:59:53.526Z,33.75
2022-09-15T05:00:53.595Z,39.38
2022-09-15T05:01:53.541Z,39.38
2022-09-15T05:02:53.503Z,39.38
2022-09-15T05:03:53.466Z,45.00
2022-09-15T05:04:53.470Z,45.00
2022-09-15T05:05:53.453Z,45.00
2022-09-15T05:06:53.433Z,50.62
2022-09-15T05:07:53.459Z,50.62
2022-09-15T05:08:53.613Z,56.25
2022-09-15T05:09:53.405Z,56.25
2022-09-15T05:10:53.402Z,61.88
2022-09-15T05:11:53.380Z,61.88
2022-09-15T05:12:53.445Z,61.88
2022-09-15T05:13:53.450Z,61.88
2022-09-15T05:14:53.364Z,67.50
2022-09-15T05:15:53.399Z,67.50
2022-09-15T05:16:53.341Z,73.12
2022-09-15T05:17:53.348Z,73.12
2022-09-15T05:18:53.330Z,78.75
2022-09-15T05:19:53.343Z,78.75
2022-09-15T05:20:53.317Z,84.38
2022-09-15T05:21:53.328Z,84.38
2022-09-15T05:22:53.268Z,90.00
2022-09-15T05:23:53.333Z,90.00
2022-09-15T05:24:53.278Z,112.50
2022-09-15T05:25:53.268Z,213.75
2022-09-15T05:26:53.232Z,343.12
2022-09-15T05:27:53.235Z,438.75
2022-09-15T05:28:53.292Z,450.00
2022-09-15T05:30:09.735Z,455.62
2022-09-15T05:30:54.307Z,489.38
2022-09-15T05:31:53.213Z,466.88
2022-09-15T05:32:53.198Z,371.25
2022-09-15T05:33:53.159Z,286.88
2022-09-15T05:34:53.147Z,247.50
2022-09-15T05:35:53.136Z,236.25
2022-09-15T05:36:53.135Z,253.12
2022-09-15T05:37:53.145Z,264.38
2022-09-15T05:38:53.097Z,247.50
2022-09-15T05:39:53.131Z,247.50
2022-09-15T05:40:53.097Z,253.12
2022-09-15T05:41:53.246Z,264.38
2022-09-15T05:42:53.094Z,270.00
2022-09-15T05:43:53.117Z,281.25
2022-09-15T05:44:53.059Z,286.88
2022-09-15T05:45:53.039Z,281.25
2022-09-15T05:46:53.121Z,270.00
2022-09-15T05:47:53.064Z,258.75
2022-09-15T05:48:52.999Z,253.12
2022-09-15T05:49:52.993Z,264.38
2022-09-15T05:50:52.989Z,270.00
2022-09-15T05:51:53.006Z,270.00
2022-09-15T05:52:52.990Z,253.12
2022-09-15T05:53:53.014Z,247.50
2022-09-15T05:54:55.786Z,241.88
2022-09-15T05:55:53.937Z,241.88
2022-09-15T05:56:52.962Z,241.88
2022-09-15T05:57:52.931Z,247.50
2022-09-15T05:58:53.078Z,253.12
2022-09-15T05:59:52.924Z,253.12
2022-09-15T06:00:52.914Z,258.75
2022-09-15T06:01:52.993Z,275.62
2022-09-15T06:02:52.915Z,281.25
2022-09-15T06:03:53.041Z,292.50
2022-09-15T06:04:52.892Z,292.50
2022-09-15T06:05:52.834Z,286.88
2022-09-15T06:06:52.814Z,270.00
2022-09-15T06:07:52.842Z,219.38
2022-09-15T06:08:57.009Z,258.75
2022-09-15T06:09:53.784Z,208.12
2022-09-15T06:10:52.894Z,213.75
2022-09-15T06:11:52.781Z,213.75
2022-09-15T06:12:52.756Z,213.75
2022-09-15T06:13:52.852Z,213.75
2022-09-15T06:14:52.768Z,230.62
2022-09-15T06:15:52.786Z,213.75
2022-09-15T06:16:52.707Z,213.75
2022-09-15T06:17:52.717Z,196.88
2022-09-15T06:18:52.984Z,185.62
2022-09-15T06:19:52.709Z,180.00
2022-09-15T06:20:52.682Z,174.38
2022-09-15T06:21:52.667Z,180.00
2022-09-15T06:22:52.656Z,174.38
2022-09-15T06:23:52.751Z,168.75
2022-09-15T06:24:52.864Z,163.12
2022-09-15T06:25:52.612Z,157.50
2022-09-15T06:26:52.618Z,163.12
2022-09-15T06:27:52.596Z,168.75
2022-09-15T06:28:52.665Z,185.62
2022-09-15T06:29:52.625Z,191.25
2022-09-15T06:30:52.651Z,208.12
2022-09-15T06:31:52.600Z,230.62
2022-09-15T06:32:52.542Z,247.50
2022-09-15T06:33:52.779Z,270.00
2022-09-15T06:34:52.530Z,275.62
2022-09-15T06:35:52.529Z,258.75
2022-09-15T06:36:52.526Z,236.25
2022-09-15T06:37:52.484Z,225.00
2022-09-15T06:38:52.683Z,219.38
2022-09-15T06:39:52.494Z,213.75
2022-09-15T06:40:52.484Z,213.75
2022-09-15T06:42:02.139Z,213.75
2022-09-15T06:42:53.474Z,213.75
2022-09-15T06:43:52.622Z,219.38
2022-09-15T06:44:52.497Z,225.00
2022-09-15T06:45:52.441Z,225.00
2022-09-15T06:46:52.407Z,230.62
2022-09-15T06:48:13.369Z,230.62
2022-09-15T06:48:53.501Z,236.25
2022-09-15T06:49:52.579Z,253.12
2022-09-15T06:50:52.591Z,264.38
2022-09-15T06:51:52.392Z,247.50
2022-09-15T06:52:52.530Z,241.88
2022-09-15T06:53:52.551Z,236.25
2022-09-15T06:54:52.367Z,241.88
2022-09-15T06:55:52.469Z,236.25
2022-09-15T06:56:52.482Z,230.62
2022-09-15T06:57:52.582Z,225.00
2022-09-15T06:58:52.412Z,225.00
2022-09-15T06:59:53.123Z,225.00
2022-09-15T07:00:52.244Z,225.00
2022-09-15T07:01:52.337Z,230.62
2022-09-15T07:02:52.433Z,230.62
2022-09-15T07:03:53.427Z,236.25
2022-09-15T07:04:52.387Z,241.88
2022-09-15T07:05:52.275Z,253.12
2022-09-15T07:06:52.336Z,253.12
2022-09-15T07:07:52.426Z,247.50
2022-09-15T07:08:52.400Z,236.25
2022-09-15T07:09:52.282Z,230.62
2022-09-15T07:10:52.308Z,236.25
2022-09-15T07:11:52.215Z,230.62
2022-09-15T07:12:52.326Z,236.25
2022-09-15T07:13:52.472Z,236.25
2022-09-15T07:14:52.185Z,264.38
2022-09-15T07:15:52.231Z,241.88
2022-09-15T07:16:52.247Z,247.50
2022-09-15T07:17:52.236Z,253.12
2022-09-15T07:18:52.301Z,258.75
2022-09-15T07:19:52.195Z,264.38
2022-09-15T07:20:52.365Z,270.00
2022-09-15T07:21:52.226Z,270.00
2022-09-15T07:22:52.064Z,270.00
2022-09-15T07:23:52.314Z,275.62
2022-09-15T07:24:52.308Z,270.00
2022-09-15T07:25:52.333Z,258.75
2022-09-15T07:26:52.113Z,247.50
2022-09-15T07:27:52.275Z,253.12
2022-09-15T07:28:52.480Z,253.12
2022-09-15T07:29:52.187Z,258.75
2022-09-15T07:30:52.091Z,270.00
2022-09-15T07:31:51.983Z,275.62
2022-09-15T07:32:51.936Z,270.00
2022-09-15T07:33:52.265Z,253.12
2022-09-15T07:34:56.503Z,253.12
2022-09-15T07:35:52.902Z,247.50
2022-09-15T07:36:51.881Z,253.12
2022-09-15T07:37:51.872Z,253.12
2022-09-15T07:38:51.893Z,303.75
2022-09-15T07:39:55.956Z,264.38
2022-09-15T07:40:51.901Z,258.75
2022-09-15T07:41:51.927Z,264.38
2022-09-15T07:42:51.825Z,264.38
2022-09-15T07:43:51.910Z,258.75
2022-09-15T07:44:51.821Z,253.12
2022-09-15T07:45:51.811Z,258.75
2022-09-15T07:46:51.781Z,264.38
2022-09-15T07:47:51.761Z,270.00
2022-09-15T07:48:52.102Z,270.00
2022-09-15T07:49:51.805Z,275.62
2022-09-15T07:50:51.748Z,281.25
2022-09-15T07:51:51.735Z,275.62
2022-09-15T07:52:51.729Z,275.62
2022-09-15T07:53:51.752Z,286.88
2022-09-15T07:54:51.710Z,292.50
2022-09-15T07:55:51.686Z,309.38
2022-09-15T07:56:51.667Z,326.25
2022-09-15T07:57:51.679Z,337.50
2022-09-15T07:58:51.697Z,348.75
2022-09-15T07:59:51.662Z,348.75
2022-09-15T08:00:51.728Z,337.50
2022-09-15T08:01:51.750Z,331.88
2022-09-15T08:02:51.616Z,326.25
2022-09-15T08:03:51.730Z,298.12
2022-09-15T08:04:51.579Z,286.88
2022-09-15T08:05:51.574Z,298.12
2022-09-15T08:06:51.559Z,309.38
2022-09-15T08:07:51.550Z,320.62
2022-09-15T08:08:55.059Z,309.38
2022-09-15T08:09:51.555Z,298.12
2022-09-15T08:10:51.511Z,281.25
2022-09-15T08:11:51.511Z,281.25
2022-09-15T08:12:51.492Z,292.50
2022-09-15T08:13:51.522Z,320.62
2022-09-15T08:14:51.522Z,337.50
2022-09-15T08:15:51.485Z,376.88
2022-09-15T08:16:51.461Z,405.00
2022-09-15T08:17:51.450Z,399.38
2022-09-15T08:18:51.643Z,410.62
2022-09-15T08:19:51.443Z,405.00
2022-09-15T08:20:51.447Z,388.12
2022-09-15T08:21:51.425Z,376.88
2022-09-15T08:22:51.405Z,472.50
2022-09-15T08:23:51.883Z,416.25
2022-09-15T08:24:51.390Z,405.00
2022-09-15T08:25:51.375Z,393.75
2022-09-15T08:26:51.352Z,421.88
2022-09-15T08:27:51.367Z,399.38
2022-09-15T08:28:51.402Z,382.50
2022-09-15T08:29:51.347Z,365.62
2022-09-15T08:30:51.378Z,343.12
2022-09-15T08:31:51.296Z,337.50
2022-09-15T08:32:51.301Z,315.00
2022-09-15T08:33:51.309Z,315.00
2022-09-15T08:34:51.305Z,326.25
2022-09-15T08:35:51.268Z,343.12
2022-09-15T08:36:51.246Z,371.25
2022-09-15T08:37:51.254Z,382.50
2022-09-15T08:38:51.356Z,388.12
2022-09-15T08:39:51.270Z,399.38
2022-09-15T08:40:51.229Z,405.00
2022-09-15T08:41:51.239Z,405.00
2022-09-15T08:42:51.179Z,399.38
2022-09-15T08:43:51.347Z,399.38
2022-09-15T08:44:51.209Z,410.62
2022-09-15T08:45:51.177Z,433.12
2022-09-15T08:46:51.231Z,393.75
2022-09-15T08:47:51.166Z,444.38
2022-09-15T08:48:51.130Z,399.38
2022-09-15T08:49:52.466Z,393.75
2022-09-15T08:50:51.114Z,393.75
2022-09-15T08:51:52.078Z,365.62
2022-09-15T08:52:51.082Z,360.00
2022-09-15T08:53:51.108Z,354.38
2022-09-15T08:54:51.094Z,348.75
2022-09-15T08:55:51.045Z,343.12
2022-09-15T08:56:51.051Z,331.88
2022-09-15T08:57:51.025Z,326.25
2022-09-15T08:58:51.009Z,320.62
2022-09-15T08:59:51.056Z,326.25
2022-09-15T09:00:51.021Z,343.12
2022-09-15T09:01:51.038Z,354.38
2022-09-15T09:02:51.015Z,354.38
2022-09-15T09:03:50.968Z,337.50
2022-09-15T09:04:50.984Z,320.62
2022-09-15T09:05:50.974Z,309.38
2022-09-15T09:06:50.971Z,309.38
2022-09-15T09:07:50.926Z,309.38
2022-09-15T09:08:51.054Z,309.38
2022-09-15T09:09:50.986Z,303.75
2022-09-15T09:10:50.907Z,303.75
2022-09-15T09:11:50.885Z,315.00
2022-09-15T09:12:50.891Z,320.62
2022-09-15T09:13:50.899Z,331.88
2022-09-15T09:14:50.859Z,320.62
2022-09-15T09:15:50.904Z,309.38
2022-09-15T09:16:50.834Z,298.12
2022-09-15T09:17:50.835Z,292.50
2022-09-15T09:18:50.819Z,303.75
2022-09-15T09:19:50.814Z,320.62
2022-09-15T09:20:50.810Z,326.25
2022-09-15T09:21:50.779Z,326.25
2022-09-15T09:22:50.763Z,326.25
2022-09-15T09:23:50.779Z,326.25
2022-09-15T09:24:50.767Z,326.25
2022-09-15T09:25:50.744Z,331.88
2022-09-15T09:26:50.730Z,326.25
2022-09-15T09:27:50.722Z,337.50
2022-09-15T09:28:50.719Z,354.38
2022-09-15T09:29:50.732Z,360.00
2022-09-15T09:30:50.762Z,365.62
2022-09-15T09:31:50.701Z,365.62
2022-09-15T09:32:50.662Z,371.25
2022-09-15T09:33:50.821Z,376.88
2022-09-15T09:34:50.675Z,382.50
2022-09-15T09:35:51.254Z,410.62
2022-09-15T09:36:50.759Z,388.12
2022-09-15T09:37:50.658Z,416.25
2022-09-15T09:38:50.596Z,405.00
2022-09-15T09:39:50.893Z,416.25
2022-09-15T09:40:50.579Z,416.25
2022-09-15T09:41:50.586Z,410.62
2022-09-15T09:42:50.575Z,410.62
2022-09-15T09:43:50.600Z,410.62
2022-09-15T09:44:50.576Z,416.25
2022-09-15T09:45:50.587Z,410.62
2022-09-15T09:46:50.522Z,405.00
2022-09-15T09:47:50.523Z,410.62
2022-09-15T09:48:50.523Z,388.12
2022-09-15T09:49:50.517Z,382.50
2022-09-15T09:50:50.485Z,388.12
2022-09-15T09:51:50.488Z,388.12
2022-09-15T09:52:50.480Z,455.62
2022-09-15T09:53:50.546Z,376.88
2022-09-15T09:54:50.478Z,371.25
2022-09-15T09:55:50.420Z,382.50
2022-09-15T09:56:50.430Z,405.00
2022-09-15T09:57:50.402Z,427.50
2022-09-15T09:58:50.391Z,410.62
2022-09-15T09:59:50.416Z,433.12
2022-09-15T10:00:50.380Z,444.38
2022-09-15T10:01:50.429Z,444.38
2022-09-15T10:02:50.380Z,455.62
2022-09-15T10:03:50.341Z,433.12
2022-09-15T10:04:50.390Z,483.75
2022-09-15T10:05:50.333Z,478.12
2022-09-15T10:06:50.305Z,483.75
2022-09-15T10:07:50.308Z,495.00
2022-09-15T10:08:50.285Z,601.88
2022-09-15T10:09:50.339Z,511.88
2022-09-15T10:10:50.278Z,495.00
2022-09-15T10:11:50.269Z,506.25
2022-09-15T10:12:50.258Z,511.88
2022-09-15T10:13:50.299Z,551.25
2022-09-15T10:14:52.024Z,680.62
2022-09-15T10:15:50.218Z,613.12
2022-09-15T10:16:50.263Z,472.50
2022-09-15T10:17:50.240Z,798.75
2022-09-15T10:18:54.140Z,793.12
2022-09-15T10:19:50.176Z,511.88
2022-09-15T10:20:50.165Z,478.12
2022-09-15T10:21:50.168Z,438.75
2022-09-15T10:22:50.167Z,410.62
2022-09-15T10:23:50.130Z,388.12
2022-09-15T10:24:50.143Z,348.75
2022-09-15T10:25:59.143Z,343.12
2022-09-15T10:26:55.969Z,365.62
2022-09-15T10:27:57.636Z,388.12
2022-09-15T10:29:04.878Z,410.62
2022-09-15T10:30:05.017Z,421.88
2022-09-15T10:31:04.680Z,427.50
2022-09-15T10:32:04.944Z,421.88
2022-09-15T10:33:05.041Z,450.00
2022-09-15T10:34:04.703Z,551.25
2022-09-15T10:35:11.029Z,495.00
2022-09-15T10:35:56.913Z,472.50
2022-09-15T10:37:04.570Z,506.25
2022-09-15T10:38:01.427Z,410.62
2022-09-15T10:39:04.126Z,416.25
2022-09-15T10:40:04.882Z,450.00
2022-09-15T10:41:04.507Z,590.62
2022-09-15T10:42:11.034Z,551.25
2022-09-15T10:42:56.955Z,708.75
2022-09-15T10:43:49.979Z,686.25
2022-09-15T10:45:20.815Z,725.62
2022-09-15T10:46:25.484Z,624.38
2022-09-15T10:47:10.931Z,438.75
2022-09-15T10:48:25.596Z,731.25
2022-09-15T10:49:29.282Z,703.12
2022-09-15T10:50:10.921Z,742.50
2022-09-15T10:50:49.871Z,742.50
2022-09-15T10:51:49.852Z,686.25
2022-09-15T10:52:49.867Z,641.25
2022-09-15T10:53:50.010Z,630.00
2022-09-15T10:54:53.746Z,618.75
2022-09-15T10:55:52.654Z,360.00
2022-09-15T10:56:49.805Z,506.25
2022-09-15T10:57:49.808Z,495.00
2022-09-15T10:58:49.828Z,399.38
2022-09-15T11:00:21.547Z,416.25
2022-09-15T11:01:05.875Z,292.50
2022-09-15T11:03:25.742Z,292.50
2022-09-15T11:04:02.124Z,286.88
2022-09-15T11:05:29.913Z,292.50
2022-09-15T11:06:05.419Z,286.88
2022-09-15T11:07:04.659Z,292.50
2022-09-15T11:07:59.525Z,292.50
2022-09-15T11:08:58.165Z,286.88
2022-09-15T11:09:58.179Z,286.88
2022-09-15T11:10:58.146Z,292.50
2022-09-15T11:11:58.142Z,309.38
2022-09-15T11:12:58.153Z,264.38
2022-09-15T11:13:58.137Z,241.88
2022-09-15T11:14:58.164Z,230.62
2022-09-15T11:15:58.138Z,230.62
2022-09-15T11:16:58.084Z,230.62
2022-09-15T11:17:58.081Z,236.25
2022-09-15T11:18:59.473Z,241.88
2022-09-15T11:19:58.048Z,275.62
2022-09-15T11:20:58.038Z,331.88
2022-09-15T11:21:58.041Z,298.12
2022-09-15T11:22:58.242Z,275.62
2022-09-15T11:23:58.017Z,309.38
2022-09-15T11:24:58.031Z,309.38
2022-09-15T11:25:57.989Z,343.12
2022-09-15T11:26:58.011Z,371.25
2022-09-15T11:27:57.998Z,365.62
2022-09-15T11:30:13.856Z,393.75
2022-09-15T11:31:10.911Z,320.62
2022-09-15T11:32:11.005Z,315.00
2022-09-15T11:33:10.870Z,320.62
2022-09-15T11:34:21.074Z,331.88
2022-09-15T11:35:10.830Z,410.62
2022-09-15T11:36:11.294Z,410.62
2022-09-15T11:37:10.831Z,427.50
2022-09-15T11:38:13.071Z,489.38
2022-09-15T11:39:22.248Z,421.88
2022-09-15T11:40:11.815Z,427.50
2022-09-15T11:41:10.791Z,433.12
2022-09-15T11:42:10.787Z,568.12
2022-09-15T11:43:10.769Z,568.12
2022-09-15T11:44:14.695Z,444.38
2022-09-15T11:45:11.774Z,506.25
2022-09-15T11:46:10.756Z,354.38
2022-09-15T11:47:10.742Z,326.25
2022-09-15T11:48:10.743Z,326.25
2022-09-15T11:49:10.722Z,315.00
2022-09-15T11:50:10.715Z,298.12
2022-09-15T11:51:10.706Z,275.62
2022-09-15T11:52:10.658Z,253.12
2022-09-15T11:53:10.651Z,241.88
2022-09-15T11:54:11.018Z,230.62
2022-09-15T11:55:10.619Z,208.12
2022-09-15T11:56:10.803Z,185.62
2022-09-15T11:57:10.607Z,174.38
2022-09-15T11:58:10.594Z,168.75
2022-09-15T11:59:10.594Z,163.12
2022-09-15T12:00:10.624Z,157.50
2022-09-15T12:01:10.598Z,146.25
2022-09-15T12:02:10.583Z,135.00
2022-09-15T12:03:10.622Z,123.75
2022-09-15T12:04:10.528Z,118.12
2022-09-15T12:05:11.148Z,123.75
2022-09-15T12:06:10.537Z,146.25
2022-09-15T12:07:13.720Z,168.75
2022-09-15T12:08:10.493Z,185.62
2022-09-15T12:09:10.496Z,213.75
2022-09-15T12:10:10.514Z,241.88
2022-09-15T12:11:10.458Z,264.38
2022-09-15T12:12:10.458Z,303.75
2022-09-15T12:13:10.436Z,337.50
2022-09-15T12:14:10.467Z,337.50
2022-09-15T12:15:10.432Z,382.50
2022-09-15T12:16:10.450Z,399.38
2022-09-15T12:17:10.394Z,489.38
2022-09-15T12:18:34.278Z,337.50
2022-09-15T12:19:11.441Z,292.50
2022-09-15T12:20:10.421Z,264.38
2022-09-15T12:21:10.353Z,236.25
2022-09-15T12:22:10.362Z,208.12
2022-09-15T12:23:10.344Z,196.88
2022-09-15T12:24:10.370Z,185.62
2022-09-15T12:25:10.333Z,185.62
2022-09-15T12:26:10.307Z,185.62
2022-09-15T12:27:10.304Z,191.25
2022-09-15T12:28:10.286Z,191.25
2022-09-15T12:29:10.294Z,196.88
2022-09-15T12:30:10.278Z,196.88
2022-09-15T12:31:10.278Z,208.12
2022-09-15T12:32:10.257Z,219.38
2022-09-15T12:33:10.229Z,365.62
2022-09-15T12:34:10.219Z,365.62
2022-09-15T12:35:13.465Z,393.75
2022-09-15T12:36:10.207Z,421.88
2022-09-15T12:37:10.197Z,438.75
2022-09-15T12:38:10.199Z,410.62
2022-09-15T12:39:10.167Z,298.12
2022-09-15T12:40:10.226Z,382.50
2022-09-15T12:41:10.145Z,303.75
2022-09-15T12:42:10.151Z,438.75
2022-09-15T12:43:10.215Z,489.38
2022-09-15T12:44:10.137Z,545.62
2022-09-15T12:45:10.104Z,511.88
2022-09-15T12:46:10.146Z,478.12
2022-09-15T12:47:10.084Z,489.38
2022-09-15T12:48:10.114Z,433.12
2022-09-15T12:49:10.119Z,483.75
2022-09-15T12:50:10.049Z,472.50
2022-09-15T12:51:10.035Z,331.88
2022-09-15T12:52:10.040Z,399.38
2022-09-15T12:53:10.043Z,360.00
2022-09-15T12:54:10.032Z,247.50
2022-09-15T12:55:10.000Z,258.75
2022-09-15T12:56:10.037Z,236.25
2022-09-15T12:57:10.014Z,213.75
2022-09-15T12:58:09.997Z,196.88
2022-09-15T12:59:09.964Z,180.00
2022-09-15T13:00:09.964Z,163.12
2022-09-15T13:01:17.919Z,146.25
2022-09-15T13:02:10.998Z,118.12
2022-09-15T13:03:10.022Z,106.88
2022-09-15T13:04:09.918Z,95.62